createdAt,value
2023-05-05T00:00:09.671Z,32.55
2023-05-05T00:01:09.622Z,32.55
2023-05-05T00:02:09.707Z,32.55
2023-05-05T00:03:09.809Z,32.56
2023-05-05T00:04:09.832Z,32.56
2023-05-05T00:05:09.830Z,32.57
2023-05-05T00:06:09.862Z,32.58
2023-05-05T00:07:09.917Z,32.56
2023-05-05T00:08:09.937Z,32.57
2023-05-05T00:09:10.011Z,32.58
2023-05-05T00:10:10.218Z,32.59
2023-05-05T00:11:10.108Z,32.59
2023-05-05T00:12:10.181Z,32.58
2023-05-05T00:13:10.419Z,32.60
2023-05-05T00:14:10.262Z,32.59
2023-05-05T00:15:10.319Z,32.60
2023-05-05T00:16:10.350Z,32.60
2023-05-05T00:17:10.673Z,32.60
2023-05-05T00:18:10.444Z,32.60
2023-05-05T00:19:10.552Z,32.61
2023-05-05T00:20:10.626Z,32.61
2023-05-05T00:21:10.621Z,32.61
2023-05-05T00:22:10.654Z,32.60
2023-05-05T00:23:10.713Z,32.61
2023-05-05T00:24:10.718Z,32.61
2023-05-05T00:25:10.768Z,32.61
2023-05-05T00:26:10.873Z,32.61
2023-05-05T00:27:10.847Z,32.61
2023-05-05T00:28:10.886Z,32.62
2023-05-05T00:29:10.943Z,32.62
2023-05-05T00:30:11.015Z,32.62
2023-05-05T00:31:11.078Z,32.62
2023-05-05T00:32:11.100Z,32.61
2023-05-05T00:33:11.150Z,32.63
2023-05-05T00:34:11.191Z,32.61
2023-05-05T00:35:11.203Z,32.65
2023-05-05T00:36:11.230Z,32.63
2023-05-05T00:37:11.304Z,32.62
2023-05-05T00:38:11.372Z,32.64
2023-05-05T00:39:11.380Z,32.63
2023-05-05T00:40:11.413Z,32.62
2023-05-05T00:41:11.488Z,32.64
2023-05-05T00:42:11.547Z,32.64
2023-05-05T00:43:11.621Z,32.64
2023-05-05T00:44:11.702Z,32.66
2023-05-05T00:45:11.715Z,32.65
2023-05-05T00:46:11.820Z,32.64
2023-05-05T00:47:11.803Z,32.67
2023-05-05T00:48:11.830Z,32.67
2023-05-05T00:49:11.884Z,32.67
2023-05-05T00:50:11.930Z,32.67
2023-05-05T00:51:11.915Z,32.65
2023-05-05T00:52:11.964Z,32.68
2023-05-05T00:53:12.007Z,32.68
2023-05-05T00:54:12.029Z,32.70
2023-05-05T00:55:12.137Z,32.67
2023-05-05T00:56:12.154Z,32.70
2023-05-05T00:57:12.228Z,32.69
2023-05-05T00:58:12.253Z,32.69
2023-05-05T00:59:12.282Z,32.69
2023-05-05T01:00:12.320Z,32.67
2023-05-05T01:01:12.389Z,32.67
2023-05-05T01:02:12.412Z,32.65
2023-05-05T01:03:12.491Z,32.69
2023-05-05T01:04:12.466Z,32.70
2023-05-05T01:05:12.534Z,32.69
2023-05-05T01:06:12.593Z,32.69
2023-05-05T01:07:12.678Z,32.68
2023-05-05T01:08:12.745Z,32.68
2023-05-05T01:09:12.823Z,32.68
2023-05-05T01:10:20.227Z,32.70
2023-05-05T01:11:13.929Z,32.73
2023-05-05T01:12:12.864Z,32.71
2023-05-05T01:13:13.008Z,32.72
2023-05-05T01:14:12.900Z,32.73
2023-05-05T01:15:12.869Z,32.70
2023-05-05T01:16:12.918Z,32.72
2023-05-05T01:17:12.926Z,32.74
2023-05-05T01:18:12.864Z,32.71
2023-05-05T01:19:12.854Z,32.74
2023-05-05T01:20:12.820Z,32.73
2023-05-05T01:21:12.830Z,32.70
2023-05-05T01:22:12.912Z,32.76
2023-05-05T01:23:12.918Z,32.71
2023-05-05T01:24:12.937Z,32.73
2023-05-05T01:25:13.010Z,32.75
2023-05-05T01:26:13.083Z,32.74
2023-05-05T01:27:13.192Z,32.72
2023-05-05T01:28:13.222Z,32.73
2023-05-05T01:29:13.260Z,32.73
2023-05-05T01:30:13.357Z,32.73
2023-05-05T01:31:13.366Z,32.72
2023-05-05T01:32:13.415Z,32.75
2023-05-05T01:33:13.441Z,32.74
2023-05-05T01:34:13.478Z,32.75
2023-05-05T01:35:13.525Z,32.73
2023-05-05T01:36:13.552Z,32.77
2023-05-05T01:37:13.627Z,32.76
2023-05-05T01:38:13.626Z,32.71
2023-05-05T01:39:13.697Z,32.76
2023-05-05T01:40:13.785Z,32.78
2023-05-05T01:41:13.859Z,32.72
2023-05-05T01:42:13.934Z,32.75
2023-05-05T01:43:13.958Z,32.78
2023-05-05T01:44:13.975Z,32.77
2023-05-05T01:45:14.021Z,32.75
2023-05-05T01:46:14.106Z,32.79
2023-05-05T01:47:14.070Z,32.80
2023-05-05T01:48:14.102Z,32.78
2023-05-05T01:49:14.116Z,32.78
2023-05-05T01:50:14.134Z,32.77
2023-05-05T01:51:14.205Z,32.77
2023-05-05T01:52:14.282Z,32.80
2023-05-05T01:53:14.291Z,32.78
2023-05-05T01:54:14.335Z,32.78
2023-05-05T01:55:14.345Z,32.77
2023-05-05T01:56:14.328Z,32.80
2023-05-05T01:57:14.332Z,32.77
2023-05-05T01:58:14.352Z,32.77
2023-05-05T01:59:14.434Z,32.80
2023-05-05T02:00:14.425Z,32.80
2023-05-05T02:01:14.461Z,32.80
2023-05-05T02:02:14.460Z,32.80
2023-05-05T02:03:14.586Z,32.80
2023-05-05T02:04:14.466Z,32.79
2023-05-05T02:05:14.486Z,32.81
2023-05-05T02:06:14.554Z,32.81
2023-05-05T02:07:14.649Z,32.79
2023-05-05T02:08:14.779Z,32.80
2023-05-05T02:09:14.765Z,32.79
2023-05-05T02:10:14.754Z,32.80
2023-05-05T02:11:14.789Z,32.82
2023-05-05T02:12:14.785Z,32.79
2023-05-05T02:13:15.362Z,32.82
2023-05-05T02:14:14.790Z,32.83
2023-05-05T02:15:14.835Z,32.83
2023-05-05T02:16:14.917Z,32.85
2023-05-05T02:17:14.801Z,32.82
2023-05-05T02:18:14.883Z,32.80
2023-05-05T02:19:14.846Z,32.82
2023-05-05T02:20:14.954Z,32.83
2023-05-05T02:21:15.024Z,32.82
2023-05-05T02:22:15.151Z,32.80
2023-05-05T02:23:15.108Z,32.83
2023-05-05T02:24:15.152Z,32.82
2023-05-05T02:25:15.092Z,32.82
2023-05-05T02:26:15.132Z,32.83
2023-05-05T02:27:15.093Z,32.87
2023-05-05T02:28:15.161Z,32.88
2023-05-05T02:29:15.181Z,32.82
2023-05-05T02:30:15.152Z,32.88
2023-05-05T02:31:15.163Z,32.85
2023-05-05T02:32:15.134Z,32.84
2023-05-05T02:33:15.137Z,32.86
2023-05-05T02:34:15.180Z,32.86
2023-05-05T02:35:15.148Z,32.84
2023-05-05T02:36:15.152Z,32.86
2023-05-05T02:37:15.199Z,32.85
2023-05-05T02:38:15.160Z,32.85
2023-05-05T02:39:15.212Z,32.86
2023-05-05T02:40:15.209Z,32.87
2023-05-05T02:41:15.219Z,32.89
2023-05-05T02:42:15.220Z,32.89
2023-05-05T02:43:15.253Z,32.89
2023-05-05T02:44:15.326Z,32.87
2023-05-05T02:45:15.241Z,32.88
2023-05-05T02:46:15.809Z,32.87
2023-05-05T02:47:15.233Z,32.89
2023-05-05T02:48:15.231Z,32.88
2023-05-05T02:49:15.212Z,32.88
2023-05-05T02:50:15.224Z,32.90
2023-05-05T02:51:15.238Z,32.89
2023-05-05T02:52:15.310Z,32.89
2023-05-05T02:53:15.688Z,32.89
2023-05-05T02:54:15.433Z,32.90
2023-05-05T02:55:15.493Z,32.91
2023-05-05T02:56:15.548Z,32.93
2023-05-05T02:57:15.629Z,32.91
2023-05-05T02:58:15.660Z,32.92
2023-05-05T02:59:16.416Z,32.91
2023-05-05T03:00:15.717Z,32.90
2023-05-05T03:01:15.718Z,32.92
2023-05-05T03:02:15.704Z,32.90
2023-05-05T03:03:15.775Z,32.91
2023-05-05T03:04:15.815Z,32.91
2023-05-05T03:05:15.767Z,32.89
2023-05-05T03:06:15.845Z,32.91
2023-05-05T03:07:15.959Z,32.86
2023-05-05T03:08:16.021Z,32.90
2023-05-05T03:09:16.117Z,32.91
2023-05-05T03:10:16.207Z,32.91
2023-05-05T03:11:16.277Z,32.92
2023-05-05T03:12:16.354Z,32.92
2023-05-05T03:13:16.372Z,32.92
2023-05-05T03:14:16.396Z,32.92
2023-05-05T03:15:16.355Z,32.90
2023-05-05T03:16:16.374Z,32.91
2023-05-05T03:17:16.385Z,32.93
2023-05-05T03:18:16.441Z,32.93
2023-05-05T03:19:16.544Z,32.93
2023-05-05T03:20:16.651Z,32.92
2023-05-05T03:21:16.673Z,32.94
2023-05-05T03:22:16.754Z,32.93
2023-05-05T03:23:16.747Z,32.93
2023-05-05T03:24:16.758Z,32.94
2023-05-05T03:25:16.747Z,32.93
2023-05-05T03:26:16.762Z,32.96
2023-05-05T03:27:16.793Z,32.95
2023-05-05T03:28:16.789Z,32.95
2023-05-05T03:29:16.903Z,32.94
2023-05-05T03:30:16.895Z,32.95
2023-05-05T03:31:17.258Z,32.95
2023-05-05T03:32:16.963Z,32.95
2023-05-05T03:33:16.950Z,32.93
2023-05-05T03:34:16.963Z,32.98
2023-05-05T03:35:16.982Z,32.95
2023-05-05T03:36:17.005Z,32.95
2023-05-05T03:37:16.976Z,32.95
2023-05-05T03:38:16.984Z,32.95
2023-05-05T03:39:17.077Z,32.94
2023-05-05T03:40:17.193Z,32.97
2023-05-05T03:41:17.272Z,32.96
2023-05-05T03:42:17.315Z,32.94
2023-05-05T03:43:17.303Z,32.96
2023-05-05T03:44:17.277Z,32.97
2023-05-05T03:45:17.320Z,32.96
2023-05-05T03:46:17.468Z,32.97
2023-05-05T03:47:17.415Z,32.95
2023-05-05T03:48:17.482Z,32.98
2023-05-05T03:49:17.461Z,32.96
2023-05-05T03:50:17.492Z,32.96
2023-05-05T03:51:17.469Z,32.94
2023-05-05T03:52:17.455Z,32.98
2023-05-05T03:53:17.497Z,32.97
2023-05-05T03:54:17.509Z,32.98
2023-05-05T03:55:17.513Z,32.97
2023-05-05T03:56:17.490Z,32.94
2023-05-05T03:57:17.499Z,32.97
2023-05-05T03:58:17.477Z,32.95
2023-05-05T03:59:17.498Z,32.97
2023-05-05T04:00:17.611Z,32.96
2023-05-05T04:01:17.752Z,32.97
2023-05-05T04:02:18.847Z,32.97
2023-05-05T04:03:17.968Z,32.98
2023-05-05T04:04:17.947Z,33.00
2023-05-05T04:05:17.802Z,32.99
2023-05-05T04:06:17.869Z,32.99
2023-05-05T04:07:17.827Z,32.99
2023-05-05T04:08:17.857Z,32.98
2023-05-05T04:09:17.785Z,32.99
2023-05-05T04:10:17.944Z,32.97
2023-05-05T04:11:17.898Z,32.98
2023-05-05T04:12:17.897Z,32.98
2023-05-05T04:13:17.904Z,32.97
2023-05-05T04:14:17.869Z,32.98
2023-05-05T04:15:17.911Z,32.98
2023-05-05T04:16:18.043Z,32.99
2023-05-05T04:17:18.042Z,32.98
2023-05-05T04:18:18.287Z,32.99
2023-05-05T04:19:18.218Z,32.99
2023-05-05T04:20:18.250Z,32.99
2023-05-05T04:21:18.226Z,33.00
2023-05-05T04:22:18.202Z,32.98
2023-05-05T04:23:18.205Z,32.98
2023-05-05T04:24:18.227Z,32.97
2023-05-05T04:25:18.294Z,33.00
2023-05-05T04:26:18.377Z,32.96
2023-05-05T04:27:18.484Z,32.98
2023-05-05T04:28:21.024Z,32.97
2023-05-05T04:29:18.574Z,32.98
2023-05-05T04:30:18.566Z,32.97
2023-05-05T04:31:18.592Z,33.00
2023-05-05T04:32:18.536Z,32.98
2023-05-05T04:33:18.530Z,33.00
2023-05-05T04:34:18.522Z,32.99
2023-05-05T04:35:18.542Z,32.97
2023-05-05T04:36:18.496Z,32.97
2023-05-05T04:37:18.495Z,32.97
2023-05-05T04:38:18.553Z,32.98
2023-05-05T04:39:18.550Z,32.99
2023-05-05T04:40:18.525Z,32.97
2023-05-05T04:41:18.483Z,32.98
2023-05-05T04:42:18.501Z,32.96
2023-05-05T04:43:18.468Z,32.96
2023-05-05T04:44:18.460Z,32.98
2023-05-05T04:45:18.460Z,32.98
2023-05-05T04:46:18.455Z,32.97
2023-05-05T04:47:18.442Z,32.97
2023-05-05T04:48:18.403Z,32.96
2023-05-05T04:49:18.440Z,32.96
2023-05-05T04:50:18.412Z,32.95
2023-05-05T04:51:18.429Z,32.97
2023-05-05T04:52:18.379Z,32.94
2023-05-05T04:53:18.394Z,32.96
2023-05-05T04:54:18.419Z,32.93
2023-05-05T04:55:18.390Z,32.95
2023-05-05T04:56:18.469Z,32.93
2023-05-05T04:57:18.329Z,32.94
2023-05-05T04:58:18.354Z,32.92
2023-05-05T04:59:18.365Z,32.94
2023-05-05T05:00:18.347Z,32.93
2023-05-05T05:01:18.339Z,32.92
2023-05-05T05:02:18.348Z,32.92
2023-05-05T05:03:18.406Z,32.91
2023-05-05T05:04:18.315Z,32.88
2023-05-05T05:05:18.357Z,32.90
2023-05-05T05:06:18.303Z,32.90
2023-05-05T05:07:19.250Z,32.89
2023-05-05T05:08:18.323Z,32.89
2023-05-05T05:09:18.278Z,32.89
2023-05-05T05:10:18.313Z,32.88
2023-05-05T05:11:18.279Z,32.87
2023-05-05T05:12:18.265Z,32.88
2023-05-05T05:13:18.467Z,32.89
2023-05-05T05:14:18.227Z,32.88
2023-05-05T05:15:18.254Z,32.88
2023-05-05T05:16:18.430Z,32.88
2023-05-05T05:17:18.226Z,32.85
2023-05-05T05:18:18.256Z,32.86
2023-05-05T05:19:18.217Z,32.87
2023-05-05T05:20:18.240Z,32.85
2023-05-05T05:21:18.205Z,32.86
2023-05-05T05:22:18.308Z,32.87
2023-05-05T05:23:18.192Z,32.88
2023-05-05T05:24:18.200Z,32.88
2023-05-05T05:25:18.233Z,32.84
2023-05-05T05:26:18.187Z,32.85
2023-05-05T05:27:18.239Z,32.86
2023-05-05T05:28:18.204Z,32.83
2023-05-05T05:29:18.162Z,32.86
2023-05-05T05:30:18.122Z,32.87
2023-05-05T05:31:18.144Z,32.88
2023-05-05T05:32:18.210Z,32.87
2023-05-05T05:33:18.118Z,32.86
2023-05-05T05:34:18.118Z,33.01
2023-05-05T05:35:18.230Z,33.04
2023-05-05T05:36:18.120Z,33.06
2023-05-05T05:37:18.185Z,33.48
2023-05-05T05:38:18.081Z,33.66
2023-05-05T05:39:18.120Z,33.98
2023-05-05T05:40:18.070Z,34.16
2023-05-05T05:41:18.072Z,34.74
2023-05-05T05:42:18.063Z,34.95
2023-05-05T05:43:18.759Z,35.03
2023-05-05T05:44:18.122Z,35.27
2023-05-05T05:45:18.046Z,35.80
2023-05-05T05:46:18.099Z,35.96
2023-05-05T05:47:18.029Z,36.10
2023-05-05T05:48:18.039Z,36.29
2023-05-05T05:49:18.015Z,36.41
2023-05-05T05:50:18.095Z,36.34
2023-05-05T05:51:18.126Z,35.95
2023-05-05T05:52:18.179Z,36.18
2023-05-05T05:53:18.200Z,35.91
2023-05-05T05:54:18.256Z,36.06
2023-05-05T05:55:18.324Z,36.12
2023-05-05T05:56:18.365Z,36.16
2023-05-05T05:57:18.385Z,36.17
2023-05-05T05:58:18.570Z,36.12
2023-05-05T05:59:18.452Z,36.10
2023-05-05T06:00:18.504Z,36.14
2023-05-05T06:01:18.557Z,36.04
2023-05-05T06:02:18.662Z,36.23
2023-05-05T06:03:18.946Z,36.21
2023-05-05T06:04:18.772Z,36.23
2023-05-05T06:05:18.833Z,36.27
2023-05-05T06:06:19.291Z,36.26
2023-05-05T06:07:18.892Z,36.20
2023-05-05T06:08:19.355Z,36.15
2023-05-05T06:09:18.950Z,36.07
2023-05-05T06:10:27.907Z,36.26
2023-05-05T06:11:20.006Z,36.25
2023-05-05T06:12:19.001Z,36.11
2023-05-05T06:13:19.020Z,36.15
2023-05-05T06:14:20.116Z,36.06
2023-05-05T06:15:18.990Z,36.10
2023-05-05T06:16:18.990Z,36.23
2023-05-05T06:17:18.988Z,36.25
2023-05-05T06:18:19.256Z,36.30
2023-05-05T06:19:18.966Z,36.19
2023-05-05T06:20:19.115Z,36.27
2023-05-05T06:21:19.093Z,36.26
2023-05-05T06:22:19.136Z,35.89
2023-05-05T06:23:19.208Z,36.08
2023-05-05T06:24:19.234Z,36.14
2023-05-05T06:25:19.348Z,36.05
2023-05-05T06:26:19.364Z,36.17
2023-05-05T06:27:19.384Z,35.98
2023-05-05T06:28:19.787Z,36.06
2023-05-05T06:29:19.564Z,36.13
2023-05-05T06:30:19.567Z,36.05
2023-05-05T06:31:19.604Z,35.93
2023-05-05T06:32:19.659Z,35.82
2023-05-05T06:33:19.768Z,36.05
2023-05-05T06:34:19.736Z,36.04
2023-05-05T06:35:19.798Z,35.89
2023-05-05T06:36:19.872Z,35.85
2023-05-05T06:37:19.914Z,35.86
2023-05-05T06:38:20.318Z,35.88
2023-05-05T06:39:20.011Z,35.92
2023-05-05T06:40:20.040Z,35.97
2023-05-05T06:41:20.104Z,35.95
2023-05-05T06:42:20.128Z,35.95
2023-05-05T06:43:20.202Z,35.94
2023-05-05T06:44:20.270Z,35.93
2023-05-05T06:45:20.294Z,35.87
2023-05-05T06:46:20.370Z,35.88
2023-05-05T06:47:20.786Z,35.92
2023-05-05T06:48:20.448Z,35.92
2023-05-05T06:49:20.542Z,35.90
2023-05-05T06:50:20.642Z,35.85
2023-05-05T06:51:20.625Z,35.83
2023-05-05T06:52:20.758Z,35.84
2023-05-05T06:53:20.750Z,35.82
2023-05-05T06:54:20.809Z,35.80
2023-05-05T06:55:20.923Z,35.81
2023-05-05T06:56:20.922Z,35.79
2023-05-05T06:57:21.027Z,35.79
2023-05-05T06:58:21.081Z,35.75
2023-05-05T06:59:21.124Z,35.73
2023-05-05T07:00:21.134Z,35.75
2023-05-05T07:01:21.286Z,35.70
2023-05-05T07:02:21.276Z,35.69
2023-05-05T07:03:21.452Z,35.72
2023-05-05T07:04:21.391Z,35.70
2023-05-05T07:05:21.435Z,35.69
2023-05-05T07:06:21.541Z,35.67
2023-05-05T07:07:21.534Z,35.66
2023-05-05T07:08:21.647Z,35.66
2023-05-05T07:09:21.669Z,35.62
2023-05-05T07:10:21.711Z,35.60
2023-05-05T07:11:21.767Z,35.60
2023-05-05T07:12:21.849Z,35.60
2023-05-05T07:13:21.895Z,35.59
2023-05-05T07:14:24.234Z,35.60
2023-05-05T07:15:28.861Z,35.57
2023-05-05T07:16:23.216Z,35.59
2023-05-05T07:17:22.199Z,35.56
2023-05-05T07:18:22.141Z,35.55
2023-05-05T07:19:22.181Z,35.51
2023-05-05T07:20:22.134Z,35.53
2023-05-05T07:21:22.105Z,35.49
2023-05-05T07:22:22.173Z,35.51
2023-05-05T07:23:22.126Z,35.53
2023-05-05T07:24:22.150Z,35.53
2023-05-05T07:25:22.165Z,35.50
2023-05-05T07:26:22.225Z,35.49
2023-05-05T07:27:22.329Z,35.45
2023-05-05T07:28:22.387Z,35.47
2023-05-05T07:29:22.911Z,35.47
2023-05-05T07:30:22.926Z,35.47
2023-05-05T07:31:22.638Z,35.44
2023-05-05T07:32:22.737Z,35.65
2023-05-05T07:33:22.617Z,35.57
2023-05-05T07:34:22.813Z,36.03
2023-05-05T07:35:22.739Z,36.05
2023-05-05T07:36:22.749Z,36.35
2023-05-05T07:37:22.813Z,36.27
2023-05-05T07:38:22.872Z,36.57
2023-05-05T07:39:22.873Z,36.80
2023-05-05T07:40:22.990Z,36.94
2023-05-05T07:41:22.933Z,36.98
2023-05-05T07:42:23.184Z,37.16
2023-05-05T07:43:23.025Z,37.27
2023-05-05T07:44:23.193Z,37.39
2023-05-05T07:45:23.050Z,37.64
2023-05-05T07:46:23.223Z,37.80
2023-05-05T07:47:23.107Z,37.97
2023-05-05T07:48:23.114Z,37.97
2023-05-05T07:49:23.188Z,38.21
2023-05-05T07:50:23.425Z,38.49
2023-05-05T07:51:23.176Z,38.66
2023-05-05T07:52:33.542Z,38.92
2023-05-05T07:53:24.133Z,38.86
2023-05-05T07:54:23.460Z,39.17
2023-05-05T07:55:23.152Z,39.14
2023-05-05T07:56:23.113Z,39.46
2023-05-05T07:57:23.177Z,39.57
2023-05-05T07:58:23.148Z,39.66
2023-05-05T07:59:23.105Z,39.73
2023-05-05T08:00:23.077Z,40.14
2023-05-05T08:01:23.100Z,40.09
2023-05-05T08:02:23.254Z,40.44
2023-05-05T08:03:23.254Z,40.66
2023-05-05T08:04:23.146Z,40.83
2023-05-05T08:05:23.084Z,40.74
2023-05-05T08:06:23.094Z,41.16
2023-05-05T08:07:23.126Z,41.31
2023-05-05T08:08:23.023Z,41.54
2023-05-05T08:09:23.073Z,41.91
2023-05-05T08:10:23.102Z,41.89
2023-05-05T08:11:23.114Z,41.75
2023-05-05T08:12:23.036Z,41.97
2023-05-05T08:13:23.106Z,42.14
2023-05-05T08:14:23.141Z,42.59
2023-05-05T08:15:23.265Z,42.29
2023-05-05T08:16:23.298Z,42.16
2023-05-05T08:17:23.382Z,42.35
2023-05-05T08:18:23.378Z,42.27
2023-05-05T08:19:29.208Z,42.47
2023-05-05T08:20:24.396Z,42.88
2023-05-05T08:21:23.474Z,43.39
2023-05-05T08:22:23.346Z,43.14
2023-05-05T08:23:23.330Z,43.20
2023-05-05T08:24:23.339Z,43.07
2023-05-05T08:25:23.387Z,43.24
2023-05-05T08:26:23.469Z,43.26
2023-05-05T08:27:23.349Z,42.98
2023-05-05T08:28:23.361Z,42.95
2023-05-05T08:29:23.844Z,42.25
2023-05-05T08:30:23.521Z,42.20
2023-05-05T08:31:23.483Z,42.82
2023-05-05T08:32:23.610Z,42.21
2023-05-05T08:33:23.508Z,42.59
2023-05-05T08:34:23.530Z,42.45
2023-05-05T08:35:23.757Z,42.66
2023-05-05T08:36:23.588Z,42.81
2023-05-05T08:37:23.593Z,42.70
2023-05-05T08:38:23.550Z,42.54
2023-05-05T08:39:23.581Z,42.61
2023-05-05T08:40:23.734Z,40.17
2023-05-05T08:41:23.598Z,39.92
2023-05-05T08:42:36.409Z,39.88
2023-05-05T08:43:24.815Z,39.78
2023-05-05T08:44:23.899Z,40.11
2023-05-05T08:45:23.639Z,40.27
2023-05-05T08:46:23.633Z,40.68
2023-05-05T08:47:23.893Z,40.83
2023-05-05T08:48:23.588Z,40.98
2023-05-05T08:49:23.659Z,41.07
2023-05-05T08:50:23.594Z,41.27
2023-05-05T08:51:23.546Z,41.34
2023-05-05T08:52:23.646Z,41.51
2023-05-05T08:53:23.570Z,41.51
2023-05-05T08:54:23.866Z,41.56
2023-05-05T08:55:23.541Z,41.73
2023-05-05T08:56:23.509Z,42.00
2023-05-05T08:57:23.520Z,42.21
2023-05-05T08:58:23.687Z,42.47
2023-05-05T08:59:23.522Z,42.48
2023-05-05T09:00:23.706Z,42.78
2023-05-05T09:01:23.701Z,42.83
2023-05-05T09:02:23.779Z,42.88
2023-05-05T09:03:23.780Z,43.11
2023-05-05T09:04:23.821Z,43.21
2023-05-05T09:05:23.947Z,43.30
2023-05-05T09:06:23.919Z,43.36
2023-05-05T09:07:23.983Z,43.24
2023-05-05T09:08:24.038Z,42.94
2023-05-05T09:09:24.141Z,43.07
2023-05-05T09:10:24.390Z,43.03
2023-05-05T09:11:24.285Z,43.08
2023-05-05T09:12:24.335Z,43.16
2023-05-05T09:13:24.345Z,43.15
2023-05-05T09:14:24.576Z,43.30
2023-05-05T09:15:24.482Z,43.39
2023-05-05T09:16:24.571Z,43.24
2023-05-05T09:17:24.631Z,43.41
2023-05-05T09:18:24.771Z,43.58
2023-05-05T09:19:24.711Z,43.56
2023-05-05T09:20:25.350Z,43.47
2023-05-05T09:21:24.849Z,43.51
2023-05-05T09:22:24.904Z,43.47
2023-05-05T09:23:24.951Z,43.77
2023-05-05T09:24:25.113Z,43.79
2023-05-05T09:25:25.034Z,44.04
2023-05-05T09:26:25.085Z,44.02
2023-05-05T09:27:25.197Z,44.10
2023-05-05T09:28:25.195Z,44.22
2023-05-05T09:29:25.257Z,44.19
2023-05-05T09:30:25.331Z,44.28
2023-05-05T09:31:25.406Z,44.42
2023-05-05T09:32:25.442Z,44.43
2023-05-05T09:33:25.440Z,44.55
2023-05-05T09:34:25.628Z,44.28
2023-05-05T09:35:25.642Z,44.24
2023-05-05T09:36:25.612Z,44.82
2023-05-05T09:37:26.400Z,43.95
2023-05-05T09:38:25.674Z,43.68
2023-05-05T09:39:25.724Z,43.49
2023-05-05T09:40:25.766Z,43.54
2023-05-05T09:41:25.794Z,43.51
2023-05-05T09:42:25.849Z,43.42
2023-05-05T09:43:25.897Z,43.54
2023-05-05T09:44:26.423Z,43.62
2023-05-05T09:45:26.014Z,43.58
2023-05-05T09:46:26.186Z,43.78
2023-05-05T09:47:29.915Z,43.75
2023-05-05T09:48:26.130Z,43.94
2023-05-05T09:49:26.083Z,44.04
2023-05-05T09:50:26.064Z,44.16
2023-05-05T09:51:26.104Z,44.12
2023-05-05T09:52:26.066Z,44.25
2023-05-05T09:53:26.061Z,44.22
2023-05-05T09:54:26.042Z,44.24
2023-05-05T09:55:26.012Z,44.23
2023-05-05T09:56:25.993Z,43.99
2023-05-05T09:57:25.983Z,43.79
2023-05-05T09:58:26.122Z,43.74
2023-05-05T09:59:26.025Z,43.66
2023-05-05T10:00:25.993Z,43.55
2023-05-05T10:01:25.967Z,43.52
2023-05-05T10:02:26.109Z,43.43
2023-05-05T10:03:26.057Z,43.20
2023-05-05T10:04:26.253Z,43.18
2023-05-05T10:05:25.969Z,43.16
2023-05-05T10:06:25.925Z,43.03
2023-05-05T10:07:25.913Z,42.78
2023-05-05T10:08:26.013Z,42.84
2023-05-05T10:09:25.906Z,42.71
2023-05-05T10:10:27.524Z,42.62
2023-05-05T10:11:25.935Z,42.52
2023-05-05T10:12:25.910Z,42.49
2023-05-05T10:13:25.875Z,42.37
2023-05-05T10:14:25.902Z,42.36
2023-05-05T10:15:25.856Z,42.37
2023-05-05T10:16:27.434Z,42.51
2023-05-05T10:17:25.911Z,42.61
2023-05-05T10:18:26.041Z,42.64
2023-05-05T10:19:26.397Z,42.79
2023-05-05T10:20:25.841Z,42.88
2023-05-05T10:21:25.815Z,42.87
2023-05-05T10:22:25.905Z,43.01
2023-05-05T10:23:25.972Z,43.01
2023-05-05T10:24:25.964Z,43.11
2023-05-05T10:25:26.104Z,43.34
2023-05-05T10:26:26.069Z,43.52
2023-05-05T10:27:26.121Z,43.36
2023-05-05T10:28:26.437Z,43.21
2023-05-05T10:29:26.295Z,42.98
2023-05-05T10:30:26.258Z,42.88
2023-05-05T10:31:26.878Z,42.79
2023-05-05T10:32:51.218Z,42.67
2023-05-05T10:33:32.050Z,42.68
2023-05-05T10:34:26.577Z,42.60
2023-05-05T10:35:26.343Z,42.47
2023-05-05T10:36:26.308Z,42.36
2023-05-05T10:37:26.347Z,42.32
2023-05-05T10:38:26.926Z,42.26
2023-05-05T10:39:26.305Z,42.19
2023-05-05T10:40:26.276Z,42.15
2023-05-05T10:41:26.297Z,42.16
2023-05-05T10:42:26.258Z,42.13
2023-05-05T10:43:26.412Z,42.13
2023-05-05T10:44:26.398Z,42.10
2023-05-05T10:45:26.327Z,42.06
2023-05-05T10:46:26.290Z,42.04
2023-05-05T10:47:26.285Z,41.99
2023-05-05T10:48:26.349Z,41.99
2023-05-05T10:49:26.439Z,41.96
2023-05-05T10:50:26.946Z,42.00
2023-05-05T10:51:38.788Z,42.01
2023-05-05T10:52:27.214Z,41.93
2023-05-05T10:53:26.198Z,41.93
2023-05-05T10:54:26.496Z,41.92
2023-05-05T10:55:26.239Z,41.93
2023-05-05T10:56:26.189Z,41.89
2023-05-05T10:57:26.229Z,41.86
2023-05-05T10:58:26.177Z,41.88
2023-05-05T10:59:26.275Z,41.87
2023-05-05T11:00:26.223Z,41.85
2023-05-05T11:01:26.261Z,41.83
2023-05-05T11:02:26.322Z,41.82
2023-05-05T11:03:26.510Z,41.75
2023-05-05T11:04:26.921Z,41.77
2023-05-05T11:05:26.465Z,41.69
2023-05-05T11:06:26.615Z,41.73
2023-05-05T11:07:26.656Z,41.71
2023-05-05T11:08:26.641Z,41.67
2023-05-05T11:09:26.683Z,41.71
2023-05-05T11:10:26.843Z,41.65
2023-05-05T11:11:26.798Z,41.64
2023-05-05T11:12:26.899Z,41.64
2023-05-05T11:13:27.040Z,41.59
2023-05-05T11:14:27.001Z,41.59
2023-05-05T11:15:27.590Z,41.54
2023-05-05T11:16:27.173Z,41.56
2023-05-05T11:17:27.231Z,41.52
2023-05-05T11:18:27.289Z,41.53
2023-05-05T11:19:27.297Z,41.52
2023-05-05T11:20:27.481Z,41.47
2023-05-05T11:21:27.409Z,41.43
2023-05-05T11:22:27.480Z,41.46
2023-05-05T11:23:27.936Z,41.44
2023-05-05T11:24:27.605Z,41.41
2023-05-05T11:25:27.662Z,41.40
2023-05-05T11:26:27.732Z,41.38
2023-05-05T11:27:27.792Z,41.37
2023-05-05T11:28:27.860Z,41.37
2023-05-05T11:29:27.925Z,41.33
2023-05-05T11:30:28.024Z,41.32
2023-05-05T11:31:28.084Z,41.31
2023-05-05T11:32:29.029Z,41.28
2023-05-05T11:33:28.294Z,41.24
2023-05-05T11:34:28.261Z,41.24
2023-05-05T11:35:28.452Z,41.24
2023-05-05T11:36:28.375Z,41.25
2023-05-05T11:37:28.467Z,41.21
2023-05-05T11:38:28.482Z,41.20
2023-05-05T11:39:28.523Z,41.20
2023-05-05T11:40:28.555Z,41.18
2023-05-05T11:41:28.613Z,41.19
2023-05-05T11:42:28.663Z,41.19
2023-05-05T11:43:28.763Z,41.16
2023-05-05T11:44:28.779Z,41.14
2023-05-05T11:45:28.857Z,41.14
2023-05-05T11:46:28.968Z,41.12
2023-05-05T11:47:28.964Z,41.14
2023-05-05T11:48:29.044Z,41.12
2023-05-05T11:49:29.054Z,41.12
2023-05-05T11:50:29.087Z,41.12
2023-05-05T11:51:29.112Z,41.11
2023-05-05T11:52:29.219Z,41.10
2023-05-05T11:53:29.276Z,41.05
2023-05-05T11:54:29.483Z,41.07
2023-05-05T11:55:29.395Z,41.06
2023-05-05T11:56:29.434Z,41.04
2023-05-05T11:57:29.480Z,41.03
2023-05-05T11:58:29.595Z,41.00
2023-05-05T11:59:29.569Z,41.00
2023-05-05T12:00:29.601Z,40.99
2023-05-05T12:01:29.683Z,41.06
2023-05-05T12:02:29.823Z,40.99
2023-05-05T12:03:29.916Z,40.98
2023-05-05T12:04:29.836Z,41.01
2023-05-05T12:05:29.841Z,40.97
2023-05-05T12:06:30.003Z,40.99
2023-05-05T12:07:30.006Z,40.97
2023-05-05T12:08:29.993Z,40.94
2023-05-05T12:09:30.022Z,40.92
2023-05-05T12:10:30.126Z,40.94
2023-05-05T12:11:30.102Z,40.87
2023-05-05T12:12:30.195Z,40.90
2023-05-05T12:13:30.213Z,40.89
2023-05-05T12:14:30.233Z,40.90
2023-05-05T12:15:30.294Z,40.85
2023-05-05T12:16:30.340Z,40.87
2023-05-05T12:17:30.343Z,40.83
2023-05-05T12:18:30.436Z,40.81
2023-05-05T12:19:30.424Z,40.78
2023-05-05T12:20:30.526Z,40.77
2023-05-05T12:21:30.553Z,40.77
2023-05-05T12:22:30.560Z,40.71
2023-05-05T12:23:30.630Z,40.76
2023-05-05T12:24:30.666Z,40.75
2023-05-05T12:25:30.719Z,40.70
2023-05-05T12:26:30.875Z,40.68
2023-05-05T12:27:30.805Z,40.70
2023-05-05T12:28:30.894Z,40.66
2023-05-05T12:29:30.899Z,40.66
2023-05-05T12:30:30.961Z,40.65
2023-05-05T12:31:30.998Z,40.60
2023-05-05T12:32:31.067Z,40.61
2023-05-05T12:33:31.484Z,40.57
2023-05-05T12:34:31.119Z,40.55
2023-05-05T12:35:31.135Z,40.56
2023-05-05T12:36:31.186Z,40.57
2023-05-05T12:37:31.226Z,40.50
2023-05-05T12:38:31.272Z,40.48
2023-05-05T12:39:31.291Z,40.50
2023-05-05T12:40:31.364Z,40.49
2023-05-05T12:41:31.428Z,40.47
2023-05-05T12:42:31.514Z,40.44
2023-05-05T12:43:31.601Z,40.42
2023-05-05T12:44:31.596Z,40.43
2023-05-05T12:45:31.672Z,40.41
2023-05-05T12:46:31.909Z,40.40
2023-05-05T12:47:31.829Z,40.43
2023-05-05T12:48:31.830Z,40.37
2023-05-05T12:49:31.891Z,40.37
2023-05-05T12:50:31.965Z,40.33
2023-05-05T12:51:32.034Z,40.35
2023-05-05T12:52:32.059Z,40.31